createdAt,value
2017-10-04T00:00:46.714Z,0
2017-10-04T00:01:55.405Z,0
2017-10-04T00:03:04.416Z,0
2017-10-04T00:04:13.111Z,0
2017-10-04T00:05:22.773Z,0
2017-10-04T00:06:32.110Z,0
2017-10-04T00:07:41.124Z,0
2017-10-04T00:08:50.456Z,0
2017-10-04T00:09:59.471Z,0
2017-10-04T00:11:08.168Z,0
2017-10-04T00:12:17.187Z,0
2017-10-04T00:13:26.203Z,0
2017-10-04T00:14:35.870Z,0
2017-10-04T00:15:44.883Z,0
2017-10-04T00:16:54.222Z,0
2017-10-04T00:18:02.914Z,0
2017-10-04T00:19:12.252Z,0
2017-10-04T00:20:22.222Z,0
2017-10-04T00:21:31.243Z,0
2017-10-04T00:22:40.573Z,0
2017-10-04T00:23:49.593Z,0
2017-10-04T00:24:58.605Z,0
2017-10-04T00:26:08.257Z,0
2017-10-04T00:27:16.947Z,0
2017-10-04T00:28:26.601Z,0
2017-10-04T00:29:35.934Z,0
2017-10-04T00:30:45.587Z,0
2017-10-04T00:31:55.555Z,0
2017-10-04T00:33:04.569Z,0
2017-10-04T00:34:13.261Z,0
2017-10-04T00:35:22.598Z,0
2017-10-04T00:36:31.613Z,0
2017-10-04T00:37:41.262Z,0
2017-10-04T00:38:49.954Z,0
2017-10-04T00:39:58.652Z,0
2017-10-04T00:41:07.985Z,0
2017-10-04T00:42:17.000Z,0
2017-10-04T00:43:26.337Z,0
2017-10-04T00:44:35.349Z,0
2017-10-04T00:45:45.008Z,0
2017-10-04T00:46:54.346Z,0
2017-10-04T00:48:03.682Z,0
2017-10-04T00:49:12.700Z,0
2017-10-04T00:50:22.031Z,0
2017-10-04T00:51:32.004Z,0
2017-10-04T00:52:40.698Z,0
2017-10-04T00:53:49.708Z,0
2017-10-04T00:54:58.723Z,0
2017-10-04T00:56:07.738Z,0
2017-10-04T00:57:17.077Z,0
2017-10-04T00:58:26.408Z,0
2017-10-04T00:59:35.423Z,0
2017-10-04T01:00:45.085Z,0
2017-10-04T01:01:54.426Z,0
2017-10-04T01:03:03.767Z,0
2017-10-04T01:04:13.102Z,0
2017-10-04T01:05:21.798Z,0
2017-10-04T01:06:30.492Z,0
2017-10-04T01:07:39.506Z,0
2017-10-04T01:08:48.519Z,0
2017-10-04T01:09:57.858Z,0
2017-10-04T01:11:07.191Z,0
2017-10-04T01:12:16.200Z,0
2017-10-04T01:13:24.892Z,0
2017-10-04T01:14:33.905Z,0
2017-10-04T01:15:43.257Z,0
2017-10-04T01:16:52.277Z,0
2017-10-04T01:18:01.297Z,0
2017-10-04T01:19:10.629Z,0
2017-10-04T01:20:20.605Z,0
2017-10-04T01:21:29.619Z,0
2017-10-04T01:22:38.632Z,0
2017-10-04T01:23:47.979Z,0
2017-10-04T01:24:57.010Z,0
2017-10-04T01:26:05.702Z,0
2017-10-04T01:27:14.716Z,0
2017-10-04T01:28:23.727Z,0
2017-10-04T01:29:33.057Z,0
2017-10-04T01:30:41.753Z,0
2017-10-04T01:31:50.445Z,0
2017-10-04T01:32:59.458Z,0
2017-10-04T01:34:08.473Z,0
2017-10-04T01:35:17.486Z,0
2017-10-04T01:36:27.455Z,0
2017-10-04T01:37:36.150Z,0
2017-10-04T01:38:45.805Z,0
2017-10-04T01:39:54.496Z,0
2017-10-04T01:41:03.511Z,0
2017-10-04T01:42:12.535Z,0
2017-10-04T01:43:21.862Z,0
2017-10-04T01:44:31.506Z,0
2017-10-04T01:45:40.839Z,0
2017-10-04T01:46:49.852Z,0
2017-10-04T01:47:59.186Z,0
2017-10-04T01:49:09.156Z,0
2017-10-04T01:50:17.850Z,0
2017-10-04T01:51:26.545Z,0
2017-10-04T01:52:35.877Z,0
2017-10-04T01:53:44.893Z,0
2017-10-04T01:54:53.589Z,0
2017-10-04T01:56:02.610Z,0
2017-10-04T01:57:11.620Z,0
2017-10-04T01:58:20.329Z,0
2017-10-04T01:59:29.025Z,0
2017-10-04T02:00:38.040Z,0
2017-10-04T02:01:47.377Z,0
2017-10-04T02:02:56.389Z,0
2017-10-04T02:04:05.400Z,0
2017-10-04T02:05:14.093Z,0
2017-10-04T02:06:23.431Z,0
2017-10-04T02:07:33.086Z,0
2017-10-04T02:08:41.779Z,0
2017-10-04T02:09:50.798Z,0
2017-10-04T02:11:00.131Z,0
2017-10-04T02:12:09.464Z,0
2017-10-04T02:13:18.155Z,0
2017-10-04T02:14:27.483Z,0
2017-10-04T02:15:36.178Z,0
2017-10-04T02:16:45.194Z,0
2017-10-04T02:17:54.209Z,0
2017-10-04T02:19:02.906Z,0
2017-10-04T02:20:12.243Z,0
2017-10-04T02:21:21.582Z,0
2017-10-04T02:22:30.916Z,0
2017-10-04T02:23:39.930Z,0
2017-10-04T02:24:49.266Z,0
2017-10-04T02:25:57.964Z,0
2017-10-04T02:27:07.298Z,0
2017-10-04T02:28:17.272Z,0
2017-10-04T02:29:26.291Z,0
2017-10-04T02:30:35.305Z,0
2017-10-04T02:31:44.955Z,0
2017-10-04T02:32:53.971Z,0
2017-10-04T02:34:02.672Z,0
2017-10-04T02:35:12.006Z,0
2017-10-04T02:36:21.025Z,0
2017-10-04T02:37:30.685Z,0
2017-10-04T02:38:39.701Z,0
2017-10-04T02:39:49.680Z,0
2017-10-04T02:40:58.694Z,0
2017-10-04T02:42:07.390Z,0
2017-10-04T02:43:16.410Z,0
2017-10-04T02:44:25.105Z,0
2017-10-04T02:45:33.799Z,0
2017-10-04T02:46:43.769Z,0
2017-10-04T02:47:52.465Z,0
2017-10-04T02:49:01.795Z,0
2017-10-04T02:50:11.454Z,0
2017-10-04T02:51:20.786Z,0
2017-10-04T02:52:30.125Z,0
2017-10-04T02:53:38.824Z,0
2017-10-04T02:54:48.155Z,0
2017-10-04T02:55:57.489Z,0
2017-10-04T02:57:06.507Z,0
2017-10-04T02:58:15.839Z,0
2017-10-04T02:59:24.534Z,0
2017-10-04T03:00:33.866Z,0
2017-10-04T03:01:42.882Z,0
2017-10-04T03:02:52.856Z,0
2017-10-04T03:04:02.197Z,0
2017-10-04T03:05:11.543Z,0
2017-10-04T03:06:21.194Z,0
2017-10-04T03:07:29.888Z,0
2017-10-04T03:08:38.586Z,0
2017-10-04T03:09:47.279Z,0
2017-10-04T03:10:56.931Z,0
2017-10-04T03:12:05.947Z,0
2017-10-04T03:13:15.596Z,0
2017-10-04T03:14:24.611Z,0
2017-10-04T03:15:33.947Z,0
2017-10-04T03:16:43.609Z,0
2017-10-04T03:17:52.622Z,0
2017-10-04T03:19:02.277Z,0
2017-10-04T03:20:11.615Z,0
2017-10-04T03:21:20.624Z,0
2017-10-04T03:22:29.957Z,0
2017-10-04T03:23:39.282Z,0
2017-10-04T03:24:48.612Z,0
2017-10-04T03:25:57.625Z,0
2017-10-04T03:27:07.293Z,0
2017-10-04T03:28:16.307Z,0
2017-10-04T03:29:25.318Z,0
2017-10-04T03:30:34.655Z,0
2017-10-04T03:31:43.990Z,0
2017-10-04T03:32:53.032Z,0
2017-10-04T03:34:02.678Z,0
2017-10-04T03:35:11.376Z,0
2017-10-04T03:36:20.385Z,0
2017-10-04T03:37:29.088Z,0
2017-10-04T03:38:37.783Z,0
2017-10-04T03:39:46.818Z,0
2017-10-04T03:40:55.520Z,0
2017-10-04T03:42:04.855Z,0
2017-10-04T03:43:14.189Z,0
2017-10-04T03:44:23.208Z,0
2017-10-04T03:45:33.185Z,0
2017-10-04T03:46:41.879Z,0
2017-10-04T03:47:51.532Z,0
2017-10-04T03:49:01.189Z,0
2017-10-04T03:50:09.886Z,0
2017-10-04T03:51:19.221Z,0
2017-10-04T03:52:28.232Z,0
2017-10-04T03:53:37.249Z,0
2017-10-04T03:54:47.218Z,0
2017-10-04T03:55:56.232Z,0
2017-10-04T03:57:05.566Z,0
2017-10-04T03:58:14.261Z,0
2017-10-04T03:59:23.914Z,0
2017-10-04T04:00:33.247Z,0
2017-10-04T04:01:42.580Z,0
2017-10-04T04:02:51.913Z,0
2017-10-04T04:04:00.926Z,0
2017-10-04T04:05:09.940Z,0
2017-10-04T04:06:18.634Z,0
2017-10-04T04:07:27.646Z,0
2017-10-04T04:08:36.657Z,0
2017-10-04T04:09:45.353Z,0
2017-10-04T04:10:54.683Z,0
2017-10-04T04:12:03.379Z,0
2017-10-04T04:13:12.069Z,0
2017-10-04T04:14:21.721Z,0
2017-10-04T04:15:31.052Z,0
2017-10-04T04:16:40.383Z,0
2017-10-04T04:17:50.037Z,0
2017-10-04T04:18:58.729Z,0
2017-10-04T04:20:08.064Z,0
2017-10-04T04:21:17.401Z,0
2017-10-04T04:22:26.411Z,0
2017-10-04T04:23:35.424Z,0
2017-10-04T04:24:44.443Z,0
2017-10-04T04:25:53.777Z,0
2017-10-04T04:27:03.105Z,0
2017-10-04T04:28:12.444Z,0
2017-10-04T04:29:22.417Z,0
2017-10-04T04:30:31.752Z,0
2017-10-04T04:31:40.807Z,0
2017-10-04T04:32:49.821Z,0
2017-10-04T04:33:59.155Z,0
2017-10-04T04:35:08.805Z,0
2017-10-04T04:36:17.821Z,0
2017-10-04T04:37:26.834Z,0
2017-10-04T04:38:35.847Z,0
2017-10-04T04:39:44.857Z,0
2017-10-04T04:40:53.553Z,0
2017-10-04T04:42:02.249Z,0
2017-10-04T04:43:11.267Z,0
2017-10-04T04:44:19.961Z,0
2017-10-04T04:45:28.973Z,0
2017-10-04T04:46:38.638Z,0
2017-10-04T04:47:48.291Z,0
2017-10-04T04:48:58.263Z,0
2017-10-04T04:50:07.599Z,0
2017-10-04T04:51:17.577Z,0
2017-10-04T04:52:26.591Z,0
2017-10-04T04:53:35.601Z,0
2017-10-04T04:54:44.940Z,0
2017-10-04T04:55:54.278Z,0
2017-10-04T04:57:03.289Z,0
2017-10-04T04:58:12.625Z,0
2017-10-04T04:59:21.637Z,0
2017-10-04T05:00:31.288Z,0
2017-10-04T05:01:39.982Z,0
2017-10-04T05:02:49.317Z,0
2017-10-04T05:03:58.647Z,0
2017-10-04T05:05:08.306Z,0
2017-10-04T05:06:17.968Z,0
2017-10-04T05:07:26.977Z,0
2017-10-04T05:08:36.310Z,0
2017-10-04T05:09:45.321Z,0
2017-10-04T05:10:54.650Z,0
2017-10-04T05:12:03.663Z,0
2017-10-04T05:13:12.359Z,0
2017-10-04T05:14:21.053Z,0
2017-10-04T05:15:30.399Z,0
2017-10-04T05:16:39.407Z,0
2017-10-04T05:17:48.739Z,0
2017-10-04T05:18:57.433Z,0
2017-10-04T05:20:06.462Z,0
2017-10-04T05:21:15.154Z,0
2017-10-04T05:22:24.180Z,0
2017-10-04T05:23:33.833Z,0
2017-10-04T05:24:43.164Z,0
2017-10-04T05:25:51.857Z,0
2017-10-04T05:27:01.190Z,0
2017-10-04T05:28:10.216Z,0
2017-10-04T05:29:19.228Z,0
2017-10-04T05:30:28.559Z,0
2017-10-04T05:31:37.891Z,0
2017-10-04T05:32:46.583Z,0
2017-10-04T05:33:55.598Z,0
2017-10-04T05:35:04.290Z,0
2017-10-04T05:36:13.944Z,0
2017-10-04T05:37:22.639Z,0
2017-10-04T05:38:31.334Z,0
2017-10-04T05:39:40.028Z,0
2017-10-04T05:40:49.045Z,0
2017-10-04T05:41:58.059Z,0
2017-10-04T05:43:06.754Z,0
2017-10-04T05:44:17.055Z,0
2017-10-04T05:45:26.384Z,0
2017-10-04T05:46:35.394Z,0
2017-10-04T05:47:44.089Z,0
2017-10-04T05:48:53.097Z,0
2017-10-04T05:50:01.794Z,0
2017-10-04T05:51:10.806Z,0
2017-10-04T05:52:20.466Z,0
2017-10-04T05:53:29.480Z,0
2017-10-04T05:54:38.815Z,0
2017-10-04T05:55:47.506Z,0
2017-10-04T05:56:56.516Z,0
2017-10-04T05:58:06.172Z,0
2017-10-04T05:59:15.827Z,0
2017-10-04T06:00:24.843Z,0
2017-10-04T06:01:34.175Z,0
2017-10-04T06:02:43.517Z,0
2017-10-04T06:03:53.177Z,0
2017-10-04T06:05:01.872Z,0
2017-10-04T06:06:10.565Z,0
2017-10-04T06:07:19.264Z,0
2017-10-04T06:08:27.958Z,0
2017-10-04T06:09:36.972Z,0
2017-10-04T06:10:45.667Z,0
2017-10-04T06:11:55.315Z,0
2017-10-04T06:13:04.330Z,0
2017-10-04T06:14:13.989Z,0
2017-10-04T06:15:22.686Z,5
2017-10-04T06:16:31.698Z,5
2017-10-04T06:17:41.687Z,5
2017-10-04T06:18:51.363Z,5
2017-10-04T06:20:00.700Z,5
2017-10-04T06:21:09.712Z,5
2017-10-04T06:22:18.733Z,5
2017-10-04T06:23:28.076Z,5
2017-10-04T06:24:37.095Z,5
2017-10-04T06:25:46.438Z,5
2017-10-04T06:26:55.451Z,5
2017-10-04T06:28:04.795Z,5
2017-10-04T06:29:14.444Z,5
2017-10-04T06:30:23.458Z,5
2017-10-04T06:31:32.153Z,5
2017-10-04T06:32:41.810Z,5
2017-10-04T06:33:51.143Z,5
2017-10-04T06:35:00.160Z,5
2017-10-04T06:36:09.503Z,5
2017-10-04T06:37:18.839Z,10
2017-10-04T06:38:28.678Z,5
2017-10-04T06:39:38.052Z,5
2017-10-04T06:40:47.393Z,5
2017-10-04T06:41:56.403Z,5
2017-10-04T06:43:05.415Z,5
2017-10-04T06:44:14.742Z,10
2017-10-04T06:45:24.074Z,10
2017-10-04T06:46:33.404Z,10
2017-10-04T06:47:42.102Z,5
2017-10-04T06:48:50.794Z,10
2017-10-04T06:49:59.809Z,5
2017-10-04T06:51:08.504Z,5
2017-10-04T06:52:17.837Z,5
2017-10-04T06:53:26.850Z,5
2017-10-04T06:54:36.184Z,5
2017-10-04T06:55:45.202Z,5
2017-10-04T06:56:53.907Z,5
2017-10-04T06:58:02.605Z,5
2017-10-04T06:59:11.303Z,5
2017-10-04T07:00:20.961Z,5
2017-10-04T07:01:30.298Z,5
2017-10-04T07:02:39.315Z,5
2017-10-04T07:03:48.329Z,5
2017-10-04T07:04:57.342Z,5
2017-10-04T07:06:06.996Z,10
2017-10-04T07:07:16.013Z,10
2017-10-04T07:08:25.348Z,10
2017-10-04T07:09:34.997Z,10
2017-10-04T07:10:44.327Z,15
2017-10-04T07:11:53.022Z,10
2017-10-04T07:13:01.714Z,10
2017-10-04T07:14:10.414Z,10
2017-10-04T07:15:19.108Z,10
2017-10-04T07:16:28.440Z,10
2017-10-04T07:17:37.131Z,5
2017-10-04T07:18:46.152Z,5
2017-10-04T07:19:55.167Z,5
2017-10-04T07:21:03.862Z,10
2017-10-04T07:22:13.200Z,10
2017-10-04T07:23:22.217Z,5
2017-10-04T07:24:31.557Z,5
2017-10-04T07:25:40.255Z,5
2017-10-04T07:26:49.592Z,5
2017-10-04T07:27:58.607Z,5
2017-10-04T07:29:07.626Z,5
2017-10-04T07:30:16.643Z,5
2017-10-04T07:31:25.663Z,5
2017-10-04T07:32:34.361Z,5
2017-10-04T07:33:43.369Z,5
2017-10-04T07:34:52.064Z,5
2017-10-04T07:36:01.078Z,5
2017-10-04T07:37:10.727Z,5
2017-10-04T07:38:19.736Z,5
2017-10-04T07:39:29.073Z,5
2017-10-04T07:40:38.085Z,5
2017-10-04T07:41:46.780Z,5
2017-10-04T07:42:56.113Z,5
2017-10-04T07:44:05.448Z,5
2017-10-04T07:45:14.141Z,5
2017-10-04T07:46:23.796Z,5
2017-10-04T07:47:32.813Z,5
2017-10-04T07:48:42.475Z,5
2017-10-04T07:49:51.169Z,5
2017-10-04T07:51:00.499Z,5
2017-10-04T07:52:09.833Z,5
2017-10-04T07:53:18.528Z,10
2017-10-04T07:54:27.222Z,15
2017-10-04T07:55:36.251Z,15
2017-10-04T07:56:46.230Z,15
2017-10-04T07:57:55.561Z,15
2017-10-04T07:59:04.578Z,15
2017-10-04T08:00:13.907Z,10
2017-10-04T08:01:22.924Z,10
2017-10-04T08:02:32.255Z,25
2017-10-04T08:03:40.946Z,20
2017-10-04T08:04:49.960Z,15
2017-10-04T08:05:59.615Z,10
2017-10-04T08:07:08.636Z,10
2017-10-04T08:08:17.654Z,15
2017-10-04T08:09:26.350Z,20
2017-10-04T08:10:35.682Z,20
2017-10-04T08:11:44.695Z,15
2017-10-04T08:12:53.706Z,10
2017-10-04T08:14:02.723Z,10
2017-10-04T08:15:11.421Z,10
2017-10-04T08:16:20.763Z,10
2017-10-04T08:17:30.423Z,15
2017-10-04T08:18:39.124Z,20
2017-10-04T08:19:48.464Z,20
2017-10-04T08:20:57.491Z,20
2017-10-04T08:22:06.824Z,20
2017-10-04T08:23:16.156Z,20
2017-10-04T08:24:24.853Z,10
2017-10-04T08:25:34.192Z,10
2017-10-04T08:26:43.525Z,15
2017-10-04T08:27:52.538Z,20
2017-10-04T08:29:01.865Z,15
2017-10-04T08:30:10.889Z,25
2017-10-04T08:31:20.215Z,20
2017-10-04T08:32:29.867Z,15
2017-10-04T08:33:38.884Z,15
2017-10-04T08:34:47.897Z,20
2017-10-04T08:35:56.590Z,25
2017-10-04T08:37:05.289Z,50
2017-10-04T08:38:15.261Z,25
2017-10-04T08:39:24.598Z,20
2017-10-04T08:40:33.933Z,30
2017-10-04T08:41:42.623Z,30
2017-10-04T08:42:51.958Z,45
2017-10-04T08:44:00.649Z,50
2017-10-04T08:45:09.662Z,25
2017-10-04T08:46:18.995Z,45
2017-10-04T08:47:28.646Z,15
2017-10-04T08:48:37.666Z,20
2017-10-04T08:49:46.683Z,15
2017-10-04T08:50:55.701Z,15
2017-10-04T08:52:04.716Z,15
2017-10-04T08:53:14.366Z,20
2017-10-04T08:54:23.067Z,20
2017-10-04T08:55:32.401Z,10
2017-10-04T08:56:41.097Z,15
2017-10-04T08:57:50.108Z,20
2017-10-04T08:58:59.118Z,10
2017-10-04T09:00:08.448Z,20
2017-10-04T09:01:17.468Z,20
2017-10-04T09:02:26.485Z,25
2017-10-04T09:03:35.818Z,25
2017-10-04T09:04:45.465Z,30
2017-10-04T09:05:54.160Z,45
2017-10-04T09:07:02.853Z,35
2017-10-04T09:08:12.501Z,40
2017-10-04T09:09:21.833Z,35
2017-10-04T09:10:31.170Z,25
2017-10-04T09:11:40.180Z,35
2017-10-04T09:12:49.515Z,50
2017-10-04T09:13:58.210Z,60
2017-10-04T09:15:07.218Z,35
2017-10-04T09:16:16.880Z,50
2017-10-04T09:17:26.528Z,55
2017-10-04T09:18:35.234Z,60
2017-10-04T09:19:44.253Z,70
2017-10-04T09:20:53.270Z,70
2017-10-04T09:22:01.972Z,145
2017-10-04T09:23:10.994Z,230
2017-10-04T09:24:19.691Z,210
2017-10-04T09:25:28.711Z,35
2017-10-04T09:26:38.690Z,70
2017-10-04T09:27:47.702Z,130
2017-10-04T09:28:56.409Z,50
2017-10-04T09:30:05.430Z,40
2017-10-04T09:31:14.128Z,40
2017-10-04T09:32:23.788Z,55
2017-10-04T09:33:32.805Z,100
2017-10-04T09:34:42.171Z,210
2017-10-04T09:35:51.185Z,135
2017-10-04T09:37:00.197Z,175
2017-10-04T09:38:09.870Z,215
2017-10-04T09:39:18.561Z,85
2017-10-04T09:40:27.580Z,70
2017-10-04T09:41:36.591Z,100
2017-10-04T09:42:45.605Z,185
2017-10-04T09:43:54.937Z,300
2017-10-04T09:45:03.951Z,335
2017-10-04T09:46:12.645Z,60
2017-10-04T09:47:21.658Z,40
2017-10-04T09:48:30.989Z,35
2017-10-04T09:49:40.649Z,55
2017-10-04T09:50:49.661Z,215
2017-10-04T09:51:58.359Z,320
2017-10-04T09:53:07.054Z,90
2017-10-04T09:54:15.748Z,30
2017-10-04T09:55:24.765Z,30
2017-10-04T09:56:33.783Z,40
2017-10-04T09:57:42.796Z,55
2017-10-04T09:58:51.490Z,75
2017-10-04T10:00:00.186Z,50
2017-10-04T10:01:09.519Z,25
2017-10-04T10:02:18.216Z,20
2017-10-04T10:03:27.232Z,35
2017-10-04T10:04:36.249Z,30
2017-10-04T10:05:45.259Z,25
2017-10-04T10:06:53.953Z,25
2017-10-04T10:08:02.651Z,30
2017-10-04T10:09:11.989Z,40
2017-10-04T10:10:20.692Z,35
2017-10-04T10:11:29.704Z,25
2017-10-04T10:12:39.044Z,45
2017-10-04T10:13:48.376Z,40
2017-10-04T10:14:57.065Z,30
2017-10-04T10:16:05.756Z,30
2017-10-04T10:17:14.449Z,20
2017-10-04T10:18:23.143Z,15
2017-10-04T10:19:31.836Z,15
2017-10-04T10:20:41.174Z,35
2017-10-04T10:21:50.193Z,20
2017-10-04T10:22:59.209Z,10
2017-10-04T10:24:07.905Z,15
2017-10-04T10:25:17.238Z,15
2017-10-04T10:26:26.891Z,20
2017-10-04T10:27:35.908Z,20
2017-10-04T10:28:44.613Z,15
2017-10-04T10:29:53.615Z,25
2017-10-04T10:31:02.315Z,20
2017-10-04T10:32:11.331Z,20
2017-10-04T10:33:20.344Z,25
2017-10-04T10:34:29.687Z,25
2017-10-04T10:35:38.704Z,30
2017-10-04T10:36:47.402Z,15
2017-10-04T10:37:57.059Z,15
2017-10-04T10:39:06.074Z,15
2017-10-04T10:40:16.369Z,30
2017-10-04T10:41:25.715Z,30
2017-10-04T10:42:34.736Z,30
2017-10-04T10:43:43.753Z,20
2017-10-04T10:44:53.095Z,25
2017-10-04T10:46:02.134Z,40
2017-10-04T10:47:11.150Z,25
2017-10-04T10:48:20.501Z,20
2017-10-04T10:49:29.839Z,25
2017-10-04T10:50:38.531Z,30
2017-10-04T10:51:47.228Z,35
2017-10-04T10:52:55.920Z,65
2017-10-04T10:54:05.256Z,45
2017-10-04T10:55:14.269Z,45
2017-10-04T10:56:22.967Z,60
2017-10-04T10:57:32.942Z,75
2017-10-04T10:58:42.275Z,30
2017-10-04T10:59:51.929Z,45
2017-10-04T11:01:01.267Z,65
2017-10-04T11:02:09.963Z,45
2017-10-04T11:03:18.665Z,25
2017-10-04T11:04:28.320Z,25
2017-10-04T11:05:37.340Z,45
2017-10-04T11:06:46.683Z,40
2017-10-04T11:07:55.698Z,30
2017-10-04T11:09:04.715Z,60
2017-10-04T11:10:13.409Z,40
2017-10-04T11:11:22.424Z,50
2017-10-04T11:12:31.459Z,95
2017-10-04T11:13:40.789Z,75
2017-10-04T11:14:50.131Z,110
2017-10-04T11:15:59.460Z,65
2017-10-04T11:17:08.158Z,60
2017-10-04T11:18:17.828Z,85
2017-10-04T11:19:26.858Z,50
2017-10-04T11:20:35.890Z,35
2017-10-04T11:21:45.560Z,75
2017-10-04T11:22:54.897Z,30
2017-10-04T11:24:03.916Z,20
2017-10-04T11:25:12.932Z,20
2017-10-04T11:26:22.266Z,35
2017-10-04T11:27:31.286Z,35
2017-10-04T11:28:40.959Z,30
2017-10-04T11:29:50.297Z,20
2017-10-04T11:30:59.309Z,20
2017-10-04T11:32:08.643Z,175
2017-10-04T11:33:17.653Z,260
2017-10-04T11:34:26.351Z,75
2017-10-04T11:35:35.047Z,85
2017-10-04T11:36:44.694Z,40
2017-10-04T11:37:54.356Z,20
2017-10-04T11:39:03.054Z,25
2017-10-04T11:40:12.068Z,170
2017-10-04T11:41:20.763Z,85
2017-10-04T11:42:30.098Z,50
2017-10-04T11:43:39.121Z,40
2017-10-04T11:44:48.137Z,45
2017-10-04T11:45:57.472Z,140
2017-10-04T11:47:06.486Z,65
2017-10-04T11:48:15.507Z,90
2017-10-04T11:49:24.842Z,90
2017-10-04T11:50:33.865Z,40
2017-10-04T11:51:42.557Z,40
2017-10-04T11:52:51.572Z,25
2017-10-04T11:54:01.224Z,35
2017-10-04T11:55:10.237Z,55
2017-10-04T11:56:19.253Z,90
2017-10-04T11:57:28.268Z,50
2017-10-04T11:58:37.282Z,25
2017-10-04T11:59:46.617Z,20
2017-10-04T12:00:55.633Z,25
2017-10-04T12:02:04.977Z,115
2017-10-04T12:03:15.274Z,160
2017-10-04T12:04:23.966Z,150
2017-10-04T12:05:32.982Z,145
2017-10-04T12:06:41.682Z,150
2017-10-04T12:07:51.015Z,155
2017-10-04T12:09:00.345Z,145
2017-10-04T12:10:09.357Z,130
2017-10-04T12:11:18.691Z,140
2017-10-04T12:12:28.023Z,105
2017-10-04T12:13:37.354Z,85
2017-10-04T12:14:46.697Z,105
2017-10-04T12:15:55.720Z,120
2017-10-04T12:17:05.054Z,85
2017-10-04T12:18:14.388Z,65
2017-10-04T12:19:23.406Z,35
2017-10-04T12:20:32.420Z,75
2017-10-04T12:21:41.441Z,90
2017-10-04T12:22:50.771Z,75
2017-10-04T12:24:00.429Z,60
2017-10-04T12:25:09.452Z,40
2017-10-04T12:26:18.784Z,45
2017-10-04T12:27:27.480Z,70
2017-10-04T12:28:37.139Z,105
2017-10-04T12:29:46.159Z,75
2017-10-04T12:30:54.856Z,105
2017-10-04T12:32:04.184Z,70
2017-10-04T12:33:13.196Z,35
2017-10-04T12:34:22.216Z,45
2017-10-04T12:35:30.912Z,30
2017-10-04T12:36:40.566Z,20
2017-10-04T12:37:49.261Z,20
2017-10-04T12:38:58.274Z,15
2017-10-04T12:40:07.289Z,15
2017-10-04T12:41:16.616Z,20
2017-10-04T12:42:25.314Z,25
2017-10-04T12:43:34.647Z,45
2017-10-04T12:44:44.297Z,55
2017-10-04T12:45:54.270Z,70
2017-10-04T12:47:03.287Z,70
2017-10-04T12:48:12.297Z,55
2017-10-04T12:49:21.313Z,40
2017-10-04T12:50:30.327Z,35
2017-10-04T12:51:39.659Z,35
2017-10-04T12:52:48.989Z,45
2017-10-04T12:53:58.968Z,60
2017-10-04T12:55:08.305Z,55
2017-10-04T12:56:17.316Z,55
2017-10-04T12:57:26.009Z,40
2017-10-04T12:58:35.365Z,40
2017-10-04T12:59:45.019Z,30
2017-10-04T13:00:54.674Z,40
2017-10-04T13:02:03.367Z,35
2017-10-04T13:03:12.067Z,20
2017-10-04T13:04:21.083Z,15
2017-10-04T13:05:30.417Z,15
2017-10-04T13:06:39.110Z,35
2017-10-04T13:07:47.808Z,35
2017-10-04T13:08:56.502Z,30
2017-10-04T13:10:05.831Z,35
2017-10-04T13:11:14.848Z,40
2017-10-04T13:12:23.861Z,40
2017-10-04T13:13:33.512Z,40
2017-10-04T13:14:42.850Z,40
2017-10-04T13:15:52.184Z,45
2017-10-04T13:17:01.199Z,45
2017-10-04T13:18:10.220Z,50
2017-10-04T13:19:19.875Z,50
2017-10-04T13:20:28.576Z,55
2017-10-04T13:21:37.275Z,45
2017-10-04T13:22:45.992Z,45
2017-10-04T13:23:56.282Z,45
2017-10-04T13:25:05.948Z,40
2017-10-04T13:26:14.648Z,40
2017-10-04T13:27:23.985Z,40
2017-10-04T13:28:33.962Z,45
2017-10-04T13:29:43.304Z,45
2017-10-04T13:30:51.997Z,40
2017-10-04T13:32:01.330Z,35
2017-10-04T13:33:10.671Z,35
2017-10-04T13:34:20.003Z,40
2017-10-04T13:35:28.702Z,40
2017-10-04T13:36:38.033Z,35
2017-10-04T13:37:46.726Z,30
2017-10-04T13:38:56.063Z,25
2017-10-04T13:40:05.398Z,30
2017-10-04T13:41:14.733Z,30
2017-10-04T13:42:23.747Z,30
2017-10-04T13:43:32.767Z,25
2017-10-04T13:44:41.463Z,30
2017-10-04T13:45:50.479Z,20
2017-10-04T13:46:59.815Z,30
2017-10-04T13:48:08.832Z,35
2017-10-04T13:49:18.164Z,30
2017-10-04T13:50:27.182Z,20
2017-10-04T13:51:36.199Z,15
2017-10-04T13:52:45.855Z,20
2017-10-04T13:53:54.871Z,20
2017-10-04T13:55:04.528Z,20
2017-10-04T13:56:13.220Z,15
2017-10-04T13:57:21.917Z,15
2017-10-04T13:58:31.251Z,15
2017-10-04T13:59:40.261Z,15
2017-10-04T14:00:49.596Z,10
2017-10-04T14:01:58.615Z,5
2017-10-04T14:03:07.309Z,10
2017-10-04T14:04:16.641Z,15
2017-10-04T14:05:26.016Z,15
2017-10-04T14:06:35.027Z,15
2017-10-04T14:07:44.363Z,10
2017-10-04T14:08:53.379Z,10
2017-10-04T14:10:02.393Z,10
2017-10-04T14:11:11.725Z,15
2017-10-04T14:12:20.420Z,15
2017-10-04T14:13:30.073Z,15
2017-10-04T14:14:39.726Z,15
2017-10-04T14:15:48.737Z,20
2017-10-04T14:16:57.751Z,20
2017-10-04T14:18:06.448Z,15
2017-10-04T14:19:15.782Z,15
2017-10-04T14:20:24.478Z,15
2017-10-04T14:21:33.501Z,20
2017-10-04T14:22:42.840Z,20
2017-10-04T14:23:52.496Z,20
2017-10-04T14:25:01.828Z,15
2017-10-04T14:26:10.845Z,20
2017-10-04T14:27:20.178Z,20
2017-10-04T14:28:28.878Z,20
2017-10-04T14:29:37.570Z,15
2017-10-04T14:30:46.267Z,20
2017-10-04T14:31:55.600Z,15
2017-10-04T14:33:04.958Z,10
2017-10-04T14:34:13.971Z,10
2017-10-04T14:35:22.985Z,10
2017-10-04T14:36:32.325Z,10
2017-10-04T14:37:41.981Z,10
2017-10-04T14:38:51.315Z,15
2017-10-04T14:40:00.011Z,15
2017-10-04T14:41:09.679Z,15
2017-10-04T14:42:19.015Z,15
2017-10-04T14:43:27.713Z,15
2017-10-04T14:44:37.368Z,15
2017-10-04T14:45:46.705Z,15
2017-10-04T14:46:55.725Z,10
2017-10-04T14:48:04.744Z,10
2017-10-04T14:49:14.088Z,10
2017-10-04T14:50:23.107Z,10
2017-10-04T14:51:32.121Z,10
2017-10-04T14:52:41.134Z,10
2017-10-04T14:53:49.827Z,5
2017-10-04T14:54:58.846Z,10
2017-10-04T14:56:07.866Z,10
2017-10-04T14:57:17.199Z,10
2017-10-04T14:58:25.896Z,10
2017-10-04T14:59:35.228Z,10
2017-10-04T15:00:44.565Z,15
2017-10-04T15:01:53.900Z,10
2017-10-04T15:03:02.920Z,10
2017-10-04T15:04:11.943Z,10
2017-10-04T15:05:20.639Z,5
2017-10-04T15:06:29.970Z,5
2017-10-04T15:07:39.305Z,5
2017-10-04T15:08:48.638Z,5
2017-10-04T15:09:57.971Z,5
2017-10-04T15:11:06.992Z,5
2017-10-04T15:12:16.013Z,5
2017-10-04T15:13:25.026Z,5
2017-10-04T15:14:34.359Z,5
2017-10-04T15:15:43.692Z,5
2017-10-04T15:16:52.708Z,5
2017-10-04T15:18:01.721Z,5
2017-10-04T15:19:10.737Z,5
2017-10-04T15:20:19.757Z,5
2017-10-04T15:21:29.087Z,5
2017-10-04T15:22:38.430Z,5
2017-10-04T15:23:47.450Z,5
2017-10-04T15:24:56.792Z,5
2017-10-04T15:26:06.136Z,5
2017-10-04T15:27:14.830Z,5
2017-10-04T15:28:23.852Z,5
2017-10-04T15:29:33.190Z,5
2017-10-04T15:30:41.885Z,5
2017-10-04T15:31:50.582Z,5
2017-10-04T15:32:59.278Z,0
2017-10-04T15:34:07.981Z,0
2017-10-04T15:35:17.325Z,0
2017-10-04T15:36:27.301Z,0
2017-10-04T15:37:36.951Z,0
2017-10-04T15:38:45.646Z,5
2017-10-04T15:39:54.985Z,5
2017-10-04T15:41:04.325Z,5
2017-10-04T15:42:13.340Z,5
2017-10-04T15:43:22.355Z,5
2017-10-04T15:44:31.055Z,5
2017-10-04T15:45:40.406Z,5
2017-10-04T15:46:50.040Z,5
2017-10-04T15:47:59.375Z,5
2017-10-04T15:49:08.393Z,5
2017-10-04T15:50:17.724Z,5
2017-10-04T15:51:26.736Z,5
2017-10-04T15:52:36.385Z,5
2017-10-04T15:53:45.713Z,5
2017-10-04T15:54:55.692Z,5
2017-10-04T15:56:04.704Z,5
2017-10-04T15:57:13.714Z,5
2017-10-04T15:58:22.733Z,5
2017-10-04T15:59:31.753Z,5
2017-10-04T16:00:41.092Z,5
2017-10-04T16:01:50.104Z,5
2017-10-04T16:02:59.126Z,0
2017-10-04T16:04:08.463Z,0
2017-10-04T16:05:17.480Z,0
2017-10-04T16:06:26.493Z,0
2017-10-04T16:07:35.510Z,0
2017-10-04T16:08:44.203Z,0
2017-10-04T16:09:53.221Z,0
2017-10-04T16:11:02.663Z,0
2017-10-04T16:12:11.696Z,0
2017-10-04T16:13:20.711Z,0
2017-10-04T16:14:29.403Z,0
2017-10-04T16:15:39.383Z,0
2017-10-04T16:16:48.398Z,0
2017-10-04T16:17:57.095Z,0
2017-10-04T16:19:06.111Z,0
2017-10-04T16:20:15.446Z,0
2017-10-04T16:21:24.140Z,0
2017-10-04T16:22:32.892Z,0
2017-10-04T16:23:41.592Z,0
2017-10-04T16:24:50.291Z,0
2017-10-04T16:25:59.626Z,0
2017-10-04T16:27:08.955Z,0
2017-10-04T16:28:18.611Z,0
2017-10-04T16:29:27.945Z,0
2017-10-04T16:30:37.603Z,0
2017-10-04T16:31:46.955Z,0
2017-10-04T16:32:55.650Z,0
2017-10-04T16:34:04.978Z,0
2017-10-04T16:35:13.995Z,0
2017-10-04T16:36:22.685Z,0
2017-10-04T16:37:32.019Z,0
2017-10-04T16:38:41.681Z,0
2017-10-04T16:39:50.695Z,0
2017-10-04T16:40:59.712Z,0
2017-10-04T16:42:08.732Z,0
2017-10-04T16:43:18.066Z,0
2017-10-04T16:44:27.398Z,0